Snow/Ice From: 16-12-2017 16:00 Until: 17-12-2017 16:00 warning for: Snow/Ice Level: Yellow info button

Although rather usual in this region, locally or potentially dangerous phenomena are expected. (such as local winds, summer thunderstorms, rising streams or high waves) Be aware and pay attention to the latest weather updates, especially if you carry out activities exposed to weather or close to a stream or shoreline. 


Meteo18 Weather Cam more information Meteo18 Weather Cam


Thunder radar more information blitzortung!


warning for Snow/Ice more information rain snow radar


Visit our other weather sites:

Template documentation
and downloads

And another site



Weather Underground History page Text

Daily Summary for March 13, 2016 Units:  Metric    English   Both
« Previous Day
Next Day »
Daily Weekly Monthly Yearly Custom
  High: Low: Average:
Temperature: 8.2 °C 0.3 °C 4.7 °C
Dew Point: 3.7 °C -0.7 °C 1.7 °C
Humidity: 94 % 69 % 82 %
Wind Speed: 25.7 km/h 0.0 km/h 4 km/h
Wind Gust: 27.4 km/h - -
Wind:- - ENE
Pressure: 1026.0 hPa 1023.6 hPa -
Precipitation: 0.0 mm    
Historical Graphs
 
 
Tabular Data for March 13, 2016
Time Temperature Dew Point Pressure Wind Wind Speed Wind Gust Humidity Rainfall Rate (Hourly)
00:07 3.3 °C 1.0 °C 1026.0 hPa NNE 4.8 km/h 6.4 km/h 85 % 0.0 mm
00:12 3.1 °C 1.0 °C 1026.0 hPa East 1.6 km/h 4.8 km/h 86 % 0.0 mm
00:17 3.0 °C 0.9 °C 1026.0 hPa NE 3.2 km/h 4.8 km/h 86 % 0.0 mm
00:22 2.8 °C 0.9 °C 1025.6 hPa Calm   6.4 km/h 87 % 0.0 mm
00:32 2.6 °C 0.7 °C 1025.6 hPa ENE 1.6 km/h 6.4 km/h 87 % 0.0 mm
00:37 2.4 °C 0.6 °C 1025.6 hPa NE 1.6 km/h 4.8 km/h 88 % 0.0 mm
00:42 2.4 °C 0.6 °C 1025.6 hPa Calm   4.8 km/h 88 % 0.0 mm
00:47 2.3 °C 0.5 °C 1025.6 hPa NE 3.2 km/h 4.8 km/h 88 % 0.0 mm
00:52 2.4 °C 0.8 °C 1025.6 hPa NNE 1.6 km/h 4.8 km/h 89 % 0.0 mm
00:57 2.6 °C 0.8 °C 1025.6 hPa Calm   6.4 km/h 88 % 0.0 mm
01:02 2.4 °C 0.6 °C 1025.6 hPa NE 1.6 km/h 6.4 km/h 88 % 0.0 mm
01:07 2.3 °C 0.7 °C 1025.6 hPa NE 3.2 km/h 6.4 km/h 89 % 0.0 mm
01:12 2.3 °C 0.5 °C 1025.6 hPa Calm   4.8 km/h 88 % 0.0 mm
01:17 2.3 °C 0.5 °C 1025.6 hPa NE 3.2 km/h 4.8 km/h 88 % 0.0 mm
01:22 2.5 °C 0.9 °C 1025.6 hPa Calm   4.8 km/h 89 % 0.0 mm
01:27 2.6 °C 0.8 °C 1025.6 hPa SSE 1.6 km/h 6.4 km/h 88 % 0.0 mm
01:42 2.9 °C 1.0 °C 1025.6 hPa East 4.8 km/h 11.3 km/h 87 % 0.0 mm
01:47 2.9 °C 1.0 °C 1025.6 hPa NE 1.6 km/h 11.3 km/h 87 % 0.0 mm
01:52 3.0 °C 1.0 °C 1025.6 hPa East 1.6 km/h 8.0 km/h 87 % 0.0 mm
01:57 2.9 °C 1.0 °C 1025.6 hPa SE 1.6 km/h 8.0 km/h 87 % 0.0 mm
02:02 3.1 °C 1.1 °C 1025.6 hPa Calm   8.0 km/h 87 % 0.0 mm
02:12 2.9 °C 1.0 °C 1025.3 hPa SE 1.6 km/h 9.7 km/h 87 % 0.0 mm
02:17 2.9 °C 1.0 °C 1025.3 hPa SE 3.2 km/h 8.0 km/h 87 % 0.0 mm
02:22 2.9 °C 1.0 °C 1025.3 hPa NE 4.8 km/h 8.0 km/h 87 % 0.0 mm
02:32 2.8 °C 1.0 °C 1025.3 hPa East 3.2 km/h 8.0 km/h 88 % 0.0 mm
02:37 2.8 °C 1.0 °C 1025.3 hPa ESE 1.6 km/h 8.0 km/h 88 % 0.0 mm
02:42 2.7 °C 0.9 °C 1025.3 hPa ENE 1.6 km/h 8.0 km/h 88 % 0.0 mm
02:47 2.7 °C 0.9 °C 1025.3 hPa East 1.6 km/h 9.7 km/h 88 % 0.0 mm
02:52 2.7 °C 0.9 °C 1025.3 hPa NE 3.2 km/h 9.7 km/h 88 % 0.0 mm
02:57 2.6 °C 0.8 °C 1025.3 hPa NE 6.4 km/h 9.7 km/h 88 % 0.0 mm
03:02 2.6 °C 0.8 °C 1025.3 hPa East 1.6 km/h 8.0 km/h 88 % 0.0 mm
03:12 2.4 °C 0.6 °C 1024.9 hPa East 1.6 km/h 9.7 km/h 88 % 0.0 mm
03:17 2.3 °C 0.7 °C 1024.9 hPa South 1.6 km/h 9.7 km/h 89 % 0.0 mm
03:22 2.3 °C 0.7 °C 1024.9 hPa NE 3.2 km/h 9.7 km/h 89 % 0.0 mm
03:32 1.8 °C 0.3 °C 1024.9 hPa ENE 4.8 km/h 9.7 km/h 90 % 0.0 mm
03:37 1.8 °C 0.5 °C 1024.9 hPa ENE 1.6 km/h 4.8 km/h 91 % 0.0 mm
03:42 1.7 °C 0.2 °C 1024.9 hPa Calm   6.4 km/h 90 % 0.0 mm
03:47 1.6 °C 0.3 °C 1024.9 hPa Calm   6.4 km/h 91 % 0.0 mm
03:52 1.6 °C 0.1 °C 1024.9 hPa East 1.6 km/h 6.4 km/h 90 % 0.0 mm
03:57 1.4 °C 0.1 °C 1024.9 hPa Calm   6.4 km/h 91 % 0.0 mm
04:02 1.4 °C 0.1 °C 1024.9 hPa Calm   4.8 km/h 91 % 0.0 mm
04:07 1.2 °C -0.1 °C 1024.9 hPa ENE 1.6 km/h 4.8 km/h 91 % 0.0 mm
04:12 1.1 °C -0.1 °C 1024.9 hPa SE 3.2 km/h 6.4 km/h 92 % 0.0 mm
04:17 1.1 °C -0.1 °C 1024.9 hPa Calm   6.4 km/h 92 % 0.0 mm
04:27 1.2 °C 0.0 °C 1024.9 hPa East 1.6 km/h 4.8 km/h 92 % 0.0 mm
04:32 1.2 °C 0.0 °C 1024.9 hPa ENE 3.2 km/h 4.8 km/h 92 % 0.0 mm
04:37 1.4 °C 0.2 °C 1024.9 hPa NE 6.4 km/h 6.4 km/h 92 % 0.0 mm
04:42 1.6 °C 0.3 °C 1024.9 hPa ENE 1.6 km/h 6.4 km/h 91 % 0.0 mm
04:47 1.5 °C 0.2 °C 1024.9 hPa East 3.2 km/h 8.0 km/h 91 % 0.0 mm
04:52 1.4 °C 0.1 °C 1024.9 hPa ENE 1.6 km/h 8.0 km/h 91 % 0.0 mm
04:57 1.3 °C 0.0 °C 1024.9 hPa ESE 1.6 km/h 8.0 km/h 91 % 0.0 mm
05:02 1.3 °C 0.1 °C 1024.9 hPa NE 3.2 km/h 8.0 km/h 92 % 0.0 mm
05:07 1.3 °C 0.0 °C 1024.6 hPa ESE 1.6 km/h 8.0 km/h 91 % 0.0 mm
05:12 1.2 °C -0.1 °C 1024.6 hPa ENE 3.2 km/h 8.0 km/h 91 % 0.0 mm
05:17 1.1 °C -0.2 °C 1024.6 hPa East 3.2 km/h 8.0 km/h 91 % 0.0 mm
05:27 0.9 °C -0.3 °C 1024.9 hPa East 1.6 km/h 6.4 km/h 92 % 0.0 mm
05:32 0.8 °C -0.4 °C 1024.6 hPa Calm   6.4 km/h 92 % 0.0 mm
05:37 0.8 °C -0.4 °C 1024.9 hPa ENE 1.6 km/h 6.4 km/h 92 % 0.0 mm
05:42 0.8 °C -0.4 °C 1024.6 hPa Calm   6.4 km/h 92 % 0.0 mm
05:47 0.8 °C -0.2 °C 1024.6 hPa Calm   3.2 km/h 93 % 0.0 mm
05:52 0.8 °C -0.4 °C 1024.6 hPa SE 1.6 km/h 3.2 km/h 92 % 0.0 mm
05:57 0.8 °C -0.2 °C 1024.6 hPa Calm   3.2 km/h 93 % 0.0 mm
06:02 0.9 °C -0.1 °C 1024.6 hPa Calm   4.8 km/h 93 % 0.0 mm
06:07 1.1 °C 0.1 °C 1024.6 hPa Calm   11.3 km/h 93 % 0.0 mm
06:12 0.9 °C -0.3 °C 1024.6 hPa Calm   11.3 km/h 92 % 0.0 mm
06:17 0.8 °C -0.4 °C 1024.6 hPa Calm   11.3 km/h 92 % 0.0 mm
06:22 0.7 °C -0.5 °C 1024.6 hPa NE 1.6 km/h 4.8 km/h 92 % 0.0 mm
06:27 0.8 °C -0.2 °C 1024.6 hPa ESE 4.8 km/h 4.8 km/h 93 % 0.0 mm
06:32 0.8 °C -0.2 °C 1024.6 hPa East 4.8 km/h 8.0 km/h 93 % 0.0 mm
06:37 0.8 °C -0.2 °C 1024.6 hPa NE 12.9 km/h 12.9 km/h 93 % 0.0 mm
06:42 0.9 °C -0.1 °C 1024.6 hPa East 1.6 km/h 9.7 km/h 93 % 0.0 mm
06:47 0.8 °C -0.4 °C 1024.9 hPa ESE 1.6 km/h 9.7 km/h 92 % 0.0 mm
06:52 0.8 °C -0.4 °C 1024.9 hPa ENE 1.6 km/h 12.9 km/h 92 % 0.0 mm
06:57 0.7 °C -0.3 °C 1024.9 hPa ESE 1.6 km/h 12.9 km/h 93 % 0.0 mm
07:02 0.6 °C -0.4 °C 1024.9 hPa ENE 4.8 km/h 9.7 km/h 93 % 0.0 mm
07:07 0.6 °C -0.4 °C 1024.9 hPa ENE 1.6 km/h 9.7 km/h 93 % 0.0 mm
07:12 0.4 °C -0.6 °C 1024.9 hPa East 3.2 km/h 9.7 km/h 93 % 0.0 mm
07:17 0.3 °C -0.7 °C 1024.9 hPa Calm   9.7 km/h 93 % 0.0 mm
07:22 0.4 °C -0.5 °C 1024.9 hPa ESE 1.6 km/h 9.7 km/h 94 % 0.0 mm
07:27 0.3 °C -0.7 °C 1024.9 hPa NNE 9.7 km/h 9.7 km/h 93 % 0.0 mm
07:32 0.4 °C -0.5 °C 1024.9 hPa ENE 1.6 km/h 8.0 km/h 94 % 0.0 mm
07:37 0.4 °C -0.5 °C 1025.3 hPa Calm   11.3 km/h 94 % 0.0 mm
07:42 0.3 °C -0.7 °C 1025.3 hPa NNE 3.2 km/h 11.3 km/h 93 % 0.0 mm
07:47 0.4 °C -0.5 °C 1025.3 hPa ENE 3.2 km/h 11.3 km/h 94 % 0.0 mm
07:52 0.4 °C -0.5 °C 1025.3 hPa Calm   9.7 km/h 94 % 0.0 mm
07:57 0.4 °C -0.5 °C 1025.3 hPa ENE 1.6 km/h 9.7 km/h 94 % 0.0 mm
08:02 0.4 °C -0.5 °C 1025.3 hPa NE 6.4 km/h 8.0 km/h 94 % 0.0 mm
08:07 0.6 °C -0.3 °C 1025.3 hPa NE 3.2 km/h 9.7 km/h 94 % 0.0 mm
08:12 0.6 °C -0.3 °C 1025.6 hPa ESE 1.6 km/h 11.3 km/h 94 % 0.0 mm
08:17 0.7 °C -0.2 °C 1025.3 hPa ENE 6.4 km/h 11.3 km/h 94 % 0.0 mm
08:22 0.7 °C -0.3 °C 1025.3 hPa Calm   11.3 km/h 93 % 0.0 mm
08:27 0.7 °C -0.3 °C 1025.3 hPa NE 4.8 km/h 12.9 km/h 93 % 0.0 mm
08:32 0.8 °C -0.2 °C 1025.3 hPa NNE 3.2 km/h 12.9 km/h 93 % 0.0 mm
08:37 0.8 °C -0.2 °C 1025.3 hPa ESE 11.3 km/h 14.5 km/h 93 % 0.0 mm
08:42 0.9 °C -0.1 °C 1025.3 hPa East 1.6 km/h 14.5 km/h 93 % 0.0 mm
08:52 1.1 °C -0.1 °C 1025.3 hPa East 3.2 km/h 14.5 km/h 92 % 0.0 mm
08:57 1.1 °C -0.1 °C 1025.6 hPa NE 3.2 km/h 12.9 km/h 92 % 0.0 mm
09:02 1.3 °C 0.3 °C 1025.6 hPa East 11.3 km/h 12.9 km/h 93 % 0.0 mm
09:07 1.4 °C 0.2 °C 1025.3 hPa ENE 4.8 km/h 12.9 km/h 92 % 0.0 mm
09:12 1.4 °C 0.1 °C 1025.6 hPa East 1.6 km/h 14.5 km/h 91 % 0.0 mm
09:17 1.6 °C 0.4 °C 1025.3 hPa NE 6.4 km/h 14.5 km/h 92 % 0.0 mm
09:22 1.7 °C 0.4 °C 1025.3 hPa ENE 8.0 km/h 14.5 km/h 91 % 0.0 mm
09:27 1.9 °C 0.6 °C 1025.3 hPa NE 6.4 km/h 16.1 km/h 91 % 0.0 mm
09:32 2.1 °C 0.6 °C 1025.3 hPa NE 8.0 km/h 16.1 km/h 90 % 0.0 mm
09:42 2.4 °C 0.8 °C 1025.3 hPa ENE 8.0 km/h 16.1 km/h 89 % 0.0 mm
09:47 2.6 °C 1.0 °C 1025.3 hPa East 1.6 km/h 12.9 km/h 89 % 0.0 mm
09:52 2.8 °C 1.2 °C 1025.3 hPa East 4.8 km/h 14.5 km/h 89 % 0.0 mm
09:57 2.8 °C 1.2 °C 1025.3 hPa SSE 4.8 km/h 16.1 km/h 89 % 0.0 mm
10:02 2.8 °C 1.0 °C 1025.3 hPa SE 3.2 km/h 16.1 km/h 88 % 0.0 mm
10:12 3.3 °C 1.3 °C 1025.3 hPa SE 3.2 km/h 17.7 km/h 87 % 0.0 mm
10:17 3.4 °C 1.3 °C 1025.3 hPa NE 14.5 km/h 19.3 km/h 86 % 0.0 mm
10:22 3.4 °C 1.1 °C 1025.3 hPa ENE 1.6 km/h 19.3 km/h 85 % 0.0 mm
10:32 3.5 °C 1.4 °C 1025.3 hPa ENE 4.8 km/h 22.5 km/h 86 % 0.0 mm
10:37 3.8 °C 1.5 °C 1025.6 hPa East 4.8 km/h 22.5 km/h 85 % 0.0 mm
10:42 4.0 °C 1.5 °C 1025.6 hPa ENE 4.8 km/h 24.1 km/h 84 % 0.0 mm
10:47 4.3 °C 1.8 °C 1025.6 hPa NE 14.5 km/h 27.4 km/h 84 % 0.0 mm
10:52 4.6 °C 2.0 °C 1025.6 hPa East 4.8 km/h 27.4 km/h 83 % 0.0 mm
10:57 4.9 °C 2.1 °C 1025.3 hPa NNE 8.0 km/h 22.5 km/h 82 % 0.0 mm
11:02 5.1 °C 2.1 °C 1025.3 hPa East 8.0 km/h 22.5 km/h 81 % 0.0 mm
11:12 5.3 °C 2.3 °C 1025.3 hPa SSE 6.4 km/h 25.7 km/h 81 % 0.0 mm
11:22 5.8 °C 2.1 °C 1025.3 hPa ENE 4.8 km/h 20.9 km/h 77 % 0.0 mm
11:27 6.0 °C 2.6 °C 1025.3 hPa ESE 8.0 km/h 20.9 km/h 79 % 0.0 mm
11:32 6.2 °C 2.6 °C 1025.3 hPa NE 6.4 km/h 20.9 km/h 78 % 0.0 mm
11:42 6.4 °C 2.5 °C 1025.3 hPa NE 3.2 km/h 27.4 km/h 76 % 0.0 mm
11:52 6.6 °C 2.5 °C 1025.3 hPa SSE 4.8 km/h 24.1 km/h 75 % 0.0 mm
11:57 6.9 °C 3.0 °C 1025.3 hPa NNE 17.7 km/h 24.1 km/h 76 % 0.0 mm
12:02 7.0 °C 2.9 °C 1025.3 hPa East 9.7 km/h 24.1 km/h 75 % 0.0 mm
12:07 6.8 °C 2.5 °C 1025.3 hPa ENE 3.2 km/h 20.9 km/h 74 % 0.0 mm
12:12 6.5 °C 2.6 °C 1024.9 hPa SE 4.8 km/h 20.9 km/h 76 % 0.0 mm
12:17 6.4 °C 2.5 °C 1024.9 hPa East 6.4 km/h 20.9 km/h 76 % 0.0 mm
12:22 6.4 °C 2.5 °C 1025.3 hPa ENE 1.6 km/h 20.9 km/h 76 % 0.0 mm
12:27 6.6 °C 2.9 °C 1024.9 hPa NE 25.7 km/h 25.7 km/h 77 % 0.0 mm
12:32 6.8 °C 2.9 °C 1024.9 hPa NNE 9.7 km/h 22.5 km/h 76 % 0.0 mm
12:37 7.2 °C 3.3 °C 1024.9 hPa ENE 3.2 km/h 25.7 km/h 76 % 0.0 mm
12:42 7.8 °C 3.6 °C 1024.9 hPa NNE 19.3 km/h 25.7 km/h 75 % 0.0 mm
12:52 7.1 °C 2.8 °C 1025.3 hPa ENE 8.0 km/h 24.1 km/h 74 % 0.0 mm
12:57 7.1 °C 3.2 °C 1024.9 hPa NNE 6.4 km/h 25.7 km/h 76 % 0.0 mm
13:02 7.2 °C 3.1 °C 1024.9 hPa ESE 1.6 km/h 25.7 km/h 75 % 0.0 mm
13:07 7.2 °C 3.3 °C 1024.9 hPa NNE 8.0 km/h 25.7 km/h 76 % 0.0 mm
13:12 7.2 °C 2.9 °C 1024.9 hPa East 4.8 km/h 17.7 km/h 74 % 0.0 mm
13:17 7.1 °C 3.2 °C 1024.9 hPa ENE 6.4 km/h 17.7 km/h 76 % 0.0 mm
13:22 7.1 °C 3.0 °C 1024.9 hPa NE 3.2 km/h 20.9 km/h 75 % 0.0 mm
13:27 7.3 °C 3.0 °C 1024.9 hPa NNE 4.8 km/h 20.9 km/h 74 % 0.0 mm
13:32 7.2 °C 2.9 °C 1024.9 hPa NE 3.2 km/h 20.9 km/h 74 % 0.0 mm
13:42 7.1 °C 3.2 °C 1024.9 hPa Calm   22.5 km/h 76 % 0.0 mm
13:47 7.4 °C 3.4 °C 1024.9 hPa NNE 6.4 km/h 22.5 km/h 76 % 0.0 mm
13:52 7.3 °C 3.2 °C 1024.6 hPa NE 3.2 km/h 22.5 km/h 75 % 0.0 mm
13:57 7.2 °C 3.1 °C 1024.6 hPa NNE 12.9 km/h 17.7 km/h 75 % 0.0 mm
14:02 7.3 °C 3.2 °C 1024.6 hPa SSE 3.2 km/h 17.7 km/h 75 % 0.0 mm
14:07 7.4 °C 3.3 °C 1024.9 hPa East 4.8 km/h 19.3 km/h 75 % 0.0 mm
14:12 7.2 °C 3.1 °C 1024.6 hPa NE 4.8 km/h 19.3 km/h 75 % 0.0 mm
14:17 7.0 °C 2.9 °C 1024.6 hPa NE 8.0 km/h 19.3 km/h 75 % 0.0 mm
14:22 6.9 °C 3.0 °C 1024.6 hPa NNE 4.8 km/h 19.3 km/h 76 % 0.0 mm
14:32 6.9 °C 3.0 °C 1024.6 hPa ENE 3.2 km/h 17.7 km/h 76 % 0.0 mm
14:37 6.9 °C 3.0 °C 1024.6 hPa NE 3.2 km/h 14.5 km/h 76 % 0.0 mm
14:42 6.8 °C 3.1 °C 1024.6 hPa ENE 12.9 km/h 16.1 km/h 77 % 0.0 mm
14:47 6.7 °C 2.8 °C 1024.6 hPa NE 3.2 km/h 20.9 km/h 76 % 0.0 mm
14:52 6.6 °C 2.9 °C 1024.6 hPa ENE 4.8 km/h 20.9 km/h 77 % 0.0 mm
15:02 6.6 °C 3.0 °C 1024.3 hPa SSE 1.6 km/h 14.5 km/h 78 % 0.0 mm
15:07 6.7 °C 3.0 °C 1024.3 hPa ENE 3.2 km/h 17.7 km/h 77 % 0.0 mm
15:12 6.9 °C 3.1 °C 1024.3 hPa NNE 3.2 km/h 17.7 km/h 77 % 0.0 mm
15:17 7.1 °C 3.3 °C 1024.3 hPa NE 6.4 km/h 17.7 km/h 77 % 0.0 mm
15:22 7.2 °C 3.3 °C 1024.3 hPa ESE 1.6 km/h 19.3 km/h 76 % 0.0 mm
15:27 7.5 °C 3.7 °C 1023.9 hPa ENE 6.4 km/h 19.3 km/h 77 % 0.0 mm
15:32 7.7 °C 3.5 °C 1023.9 hPa NE 3.2 km/h 19.3 km/h 75 % 0.0 mm
15:42 7.8 °C 3.1 °C 1023.9 hPa NW 3.2 km/h 17.7 km/h 72 % 0.0 mm
15:47 7.8 °C 3.5 °C 1023.9 hPa NE 6.4 km/h 20.9 km/h 74 % 0.0 mm
15:52 7.8 °C 3.3 °C 1023.9 hPa NNE 3.2 km/h 20.9 km/h 73 % 0.0 mm
16:02 7.9 °C 3.6 °C 1023.9 hPa East 3.2 km/h 19.3 km/h 74 % 0.0 mm
16:12 7.8 °C 3.1 °C 1023.9 hPa NE 4.8 km/h 19.3 km/h 72 % 0.0 mm
16:22 7.8 °C 3.3 °C 1023.9 hPa NE 4.8 km/h 16.1 km/h 73 % 0.0 mm
16:27 7.8 °C 3.3 °C 1023.9 hPa NNE 6.4 km/h 17.7 km/h 73 % 0.0 mm
16:32 7.8 °C 3.3 °C 1023.9 hPa NNE 1.6 km/h 17.7 km/h 73 % 0.0 mm
16:42 7.8 °C 3.3 °C 1023.6 hPa NE 6.4 km/h 19.3 km/h 73 % 0.0 mm
16:52 7.9 °C 3.4 °C 1023.6 hPa ENE 3.2 km/h 19.3 km/h 73 % 0.0 mm
16:57 7.9 °C 3.2 °C 1023.6 hPa SE 3.2 km/h 17.7 km/h 72 % 0.0 mm
17:02 7.9 °C 3.4 °C 1023.6 hPa Calm   11.3 km/h 73 % 0.0 mm
17:12 7.9 °C 3.0 °C 1023.6 hPa East 1.6 km/h 12.9 km/h 71 % 0.0 mm
17:17 7.9 °C 3.0 °C 1023.6 hPa SE 3.2 km/h 14.5 km/h 71 % 0.0 mm
17:22 7.9 °C 3.2 °C 1023.6 hPa SSE 3.2 km/h 14.5 km/h 72 % 0.0 mm
17:27 7.8 °C 3.3 °C 1023.6 hPa East 1.6 km/h 19.3 km/h 73 % 0.0 mm
17:32 7.8 °C 3.3 °C 1023.6 hPa Calm   19.3 km/h 73 % 0.0 mm
17:37 7.8 °C 3.3 °C 1023.6 hPa NNE 4.8 km/h 11.3 km/h 73 % 0.0 mm
17:42 7.8 °C 3.3 °C 1023.6 hPa East 3.2 km/h 16.1 km/h 73 % 0.0 mm
17:52 8.1 °C 3.2 °C 1023.6 hPa NNE 8.0 km/h 19.3 km/h 71 % 0.0 mm
17:57 8.1 °C 2.8 °C 1023.6 hPa NE 1.6 km/h 19.3 km/h 69 % 0.0 mm
18:02 8.1 °C 3.0 °C 1023.6 hPa ENE 1.6 km/h 11.3 km/h 70 % 0.0 mm
18:07 8.1 °C 3.0 °C 1023.6 hPa Calm   11.3 km/h 70 % 0.0 mm
18:12 8.1 °C 3.0 °C 1023.6 hPa NNE 8.0 km/h 11.3 km/h 70 % 0.0 mm
18:17 8.1 °C 3.2 °C 1023.6 hPa NNW 4.8 km/h 11.3 km/h 71 % 0.0 mm
18:22 8.1 °C 3.0 °C 1023.6 hPa ESE 3.2 km/h 11.3 km/h 70 % 0.0 mm
18:27 8.2 °C 2.9 °C 1023.9 hPa Calm   17.7 km/h 69 % 0.0 mm
18:32 8.2 °C 2.9 °C 1023.9 hPa ENE 8.0 km/h 17.7 km/h 69 % 0.0 mm
18:37 8.2 °C 2.9 °C 1023.9 hPa NE 4.8 km/h 17.7 km/h 69 % 0.0 mm
18:42 8.1 °C 3.2 °C 1023.9 hPa ENE 1.6 km/h 17.7 km/h 71 % 0.0 mm
18:47 8.0 °C 2.9 °C 1023.9 hPa NE 4.8 km/h 14.5 km/h 70 % 0.0 mm
18:52 8.1 °C 3.0 °C 1023.9 hPa SE 4.8 km/h 19.3 km/h 70 % 0.0 mm
18:57 8.1 °C 2.8 °C 1023.9 hPa NE 6.4 km/h 20.9 km/h 69 % 0.0 mm
19:02 8.1 °C 3.0 °C 1023.9 hPa NNE 11.3 km/h 20.9 km/h 70 % 0.0 mm
19:12 8.1 °C 2.8 °C 1023.9 hPa ENE 1.6 km/h 19.3 km/h 69 % 0.0 mm
19:17 8.1 °C 3.0 °C 1023.9 hPa NE 3.2 km/h 19.3 km/h 70 % 0.0 mm
19:22 8.0 °C 2.9 °C 1023.9 hPa Calm   19.3 km/h 70 % 0.0 mm
19:32 8.0 °C 2.9 °C 1023.9 hPa SE 1.6 km/h 14.5 km/h 70 % 0.0 mm
19:37 8.0 °C 3.1 °C 1023.9 hPa NE 6.4 km/h 17.7 km/h 71 % 0.0 mm
19:42 7.9 °C 3.0 °C 1024.3 hPa NE 1.6 km/h 17.7 km/h 71 % 0.0 mm
19:47 7.9 °C 3.0 °C 1024.3 hPa Calm   17.7 km/h 71 % 0.0 mm
19:52 7.9 °C 2.8 °C 1023.9 hPa NE 6.4 km/h 12.9 km/h 70 % 0.0 mm
19:57 8.0 °C 2.9 °C 1023.9 hPa NNW 4.8 km/h 12.9 km/h 70 % 0.0 mm
20:02 7.9 °C 2.8 °C 1023.9 hPa ENE 1.6 km/h 12.9 km/h 70 % 0.0 mm
20:07 7.9 °C 3.0 °C 1024.3 hPa NNE 8.0 km/h 17.7 km/h 71 % 0.0 mm
20:12 7.9 °C 3.0 °C 1024.3 hPa NNE 1.6 km/h 17.7 km/h 71 % 0.0 mm
20:17 7.8 °C 2.9 °C 1024.3 hPa NNE 11.3 km/h 17.7 km/h 71 % 0.0 mm
20:37 7.8 °C 2.9 °C 1024.3 hPa NNE 6.4 km/h 16.1 km/h 71 % 0.0 mm
20:42 7.8 °C 2.9 °C 1024.3 hPa NE 3.2 km/h 12.9 km/h 71 % 0.0 mm
20:52 7.7 °C 3.0 °C 1024.3 hPa NNE 6.4 km/h 9.7 km/h 72 % 0.0 mm
20:57 7.7 °C 2.8 °C 1024.3 hPa NE 4.8 km/h 14.5 km/h 71 % 0.0 mm
21:02 7.8 °C 2.9 °C 1024.3 hPa SSW 9.7 km/h 16.1 km/h 71 % 0.0 mm
21:12 7.8 °C 2.7 °C 1024.3 hPa NE 4.8 km/h 19.3 km/h 70 % 0.0 mm
21:17 7.7 °C 2.8 °C 1024.3 hPa NE 6.4 km/h 19.3 km/h 71 % 0.0 mm
21:22 7.7 °C 2.8 °C 1024.3 hPa NE 6.4 km/h 19.3 km/h 71 % 0.0 mm
21:27 7.7 °C 2.8 °C 1024.3 hPa ESE 8.0 km/h 19.3 km/h 71 % 0.0 mm
21:32 7.6 °C 2.7 °C 1024.3 hPa NE 1.6 km/h 19.3 km/h 71 % 0.0 mm
21:37 7.5 °C 2.6 °C 1024.3 hPa ESE 3.2 km/h 19.3 km/h 71 % 0.0 mm
21:42 7.4 °C 2.7 °C 1024.3 hPa NE 6.4 km/h 16.1 km/h 72 % 0.0 mm
21:52 7.3 °C 2.6 °C 1024.3 hPa ESE 3.2 km/h 14.5 km/h 72 % 0.0 mm
21:57 7.3 °C 2.6 °C 1024.3 hPa NE 11.3 km/h 16.1 km/h 72 % 0.0 mm
22:02 7.4 °C 2.7 °C 1024.3 hPa NNE 1.6 km/h 17.7 km/h 72 % 0.0 mm
22:12 7.2 °C 2.7 °C 1024.3 hPa East 1.6 km/h 17.7 km/h 73 % 0.0 mm
22:17 7.2 °C 2.7 °C 1024.3 hPa NE 3.2 km/h 14.5 km/h 73 % 0.0 mm
22:22 7.1 °C 2.8 °C 1024.3 hPa Calm   14.5 km/h 74 % 0.0 mm
22:27 7.1 °C 2.8 °C 1024.3 hPa NNE 3.2 km/h 14.5 km/h 74 % 0.0 mm
22:32 7.1 °C 2.8 °C 1024.3 hPa NE 3.2 km/h 14.5 km/h 74 % 0.0 mm
22:37 7.1 °C 2.8 °C 1023.9 hPa NE 6.4 km/h 14.5 km/h 74 % 0.0 mm
22:42 7.1 °C 2.8 °C 1024.3 hPa NNE 4.8 km/h 14.5 km/h 74 % 0.0 mm
22:47 6.9 °C 2.8 °C 1023.9 hPa ESE 1.6 km/h 14.5 km/h 75 % 0.0 mm
22:52 7.0 °C 2.7 °C 1023.9 hPa NW 6.4 km/h 17.7 km/h 74 % 0.0 mm
22:57 7.0 °C 2.9 °C 1023.9 hPa ENE 3.2 km/h 17.7 km/h 75 % 0.0 mm
23:02 6.9 °C 2.8 °C 1023.9 hPa NE 3.2 km/h 17.7 km/h 75 % 0.0 mm
23:07 6.9 °C 3.0 °C 1023.9 hPa East 1.6 km/h 14.5 km/h 76 % 0.0 mm
23:12 6.9 °C 3.0 °C 1023.9 hPa NE 1.6 km/h 14.5 km/h 76 % 0.0 mm
23:17 6.8 °C 2.9 °C 1023.9 hPa NNE 3.2 km/h 14.5 km/h 76 % 0.0 mm
23:22 6.8 °C 2.9 °C 1023.9 hPa Calm   12.9 km/h 76 % 0.0 mm
23:32 6.7 °C 2.8 °C 1023.9 hPa ENE 4.8 km/h 16.1 km/h 76 % 0.0 mm
23:42 6.7 °C 2.8 °C 1023.9 hPa NE 3.2 km/h 16.1 km/h 76 % 0.0 mm
23:52 6.6 °C 2.7 °C 1023.9 hPa NE 1.6 km/h 14.5 km/h 76 % 0.0 mm
23:57 6.4 °C 2.7 °C 1023.9 hPa NNE 12.9 km/h 14.5 km/h 77 % 0.0 mm
Meteo18
Compliments of Weather Underground - 4 mb

Script developed by  Jim McMurry - jmcmurry@mwt.net Adapted for the template by  Wim van der Kuil - Leuven-Template.eu

You find our weather info also at:

European Weather Network

Weather Underground

Equipment we use:

Weather-station
Davis Vue

Weather-program
Meteohub

Weather-server
Raspberry PI 2 B+

Provider
1 and 1

Davis Vue

Meteohub

Raspberry PI 2 B+

1 and 1